CheckWX is a tool to help pilots better visualize weather data.  It is not intended as a substitute for an official pre-flight weather briefing.

06:07:59 UTC

HEMM METAR
Mersa Matruh Airport
Mersa Matruh, Egypt
Current

1 hour ago

HEMM 230500Z 11004KT CAVOK 13/10 Q1022 NOSIG
Observed
Apr-23 @ 05:00 UTC
Wind
  • 110° at 4 KTS
Visibility
10,000+ meters
Flight Rules
VFR
Cloud Levels
  • Clear skies
Temperature
13°C / 55°F
Dewpoint
10°C / 50°F
Humidity
82%
Altimeter
30.18" Hg
Pressure
1021.92 hPa
Previous

2 hours ago

HEMM 230400Z 11004KT CAVOK 11/09 Q1021 NOSIG
Observed
Apr-23 @ 04:00 UTC
Wind
  • 110° at 4 KTS
Visibility
10,000+ meters
Flight Rules
VFR
Cloud Levels
  • Clear skies
Temperature
11°C / 52°F
Dewpoint
C / 48°F
Humidity
88%
Altimeter
30.15" Hg
Pressure
1020.92 hPa
Previous

3 hours ago

HEMM 230300Z 00000KT 9999 SCT020 11/09 Q1021 NOSIG
Observed
Apr-23 @ 03:00 UTC
Visibility
10,000+ meters
Flight Rules
VFR
Cloud Levels
  • Scattered at 2,000' AGL
Temperature
11°C / 52°F
Dewpoint
C / 48°F
Humidity
88%
Altimeter
30.15" Hg
Pressure
1020.92 hPa